sensor_id;sensor_type;location;lat;lon;timestamp;P1;durP1;ratioP1;P2;durP2;ratioP2
2480;SDS011;57396;48.742;9.128;2023-05-07T00:01:47;8.00;;;5.03;;
2480;SDS011;57396;48.742;9.128;2023-05-07T00:04:13;10.17;;;5.60;;
2480;SDS011;57396;48.742;9.128;2023-05-07T00:06:38;7.00;;;5.50;;
2480;SDS011;57396;48.742;9.128;2023-05-07T00:09:05;9.97;;;5.03;;
2480;SDS011;57396;48.742;9.128;2023-05-07T00:11:31;8.87;;;5.40;;
2480;SDS011;57396;48.742;9.128;2023-05-07T00:13:57;6.33;;;4.90;;
2480;SDS011;57396;48.742;9.128;2023-05-07T00:16:22;8.00;;;4.93;;
2480;SDS011;57396;48.742;9.128;2023-05-07T00:18:48;10.07;;;5.50;;
2480;SDS011;57396;48.742;9.128;2023-05-07T00:21:13;7.07;;;4.73;;
2480;SDS011;57396;48.742;9.128;2023-05-07T00:23:39;7.47;;;4.70;;
2480;SDS011;57396;48.742;9.128;2023-05-07T00:26:04;5.10;;;4.60;;
2480;SDS011;57396;48.742;9.128;2023-05-07T00:28:30;5.60;;;4.07;;
2480;SDS011;57396;48.742;9.128;2023-05-07T00:30:55;6.47;;;4.77;;
2480;SDS011;57396;48.742;9.128;2023-05-07T00:33:21;8.50;;;4.87;;
2480;SDS011;57396;48.742;9.128;2023-05-07T00:35:47;6.60;;;4.40;;
2480;SDS011;57396;48.742;9.128;2023-05-07T00:38:13;4.73;;;4.30;;
2480;SDS011;57396;48.742;9.128;2023-05-07T00:40:38;10.33;;;5.00;;
2480;SDS011;57396;48.742;9.128;2023-05-07T00:43:04;4.83;;;4.40;;
2480;SDS011;57396;48.742;9.128;2023-05-07T00:45:29;7.43;;;5.27;;
2480;SDS011;57396;48.742;9.128;2023-05-07T00:47:55;7.50;;;4.30;;
2480;SDS011;57396;48.742;9.128;2023-05-07T00:50:21;4.87;;;4.33;;
2480;SDS011;57396;48.742;9.128;2023-05-07T00:52:47;5.27;;;4.67;;
2480;SDS011;57396;48.742;9.128;2023-05-07T00:55:13;5.13;;;4.33;;
2480;SDS011;57396;48.742;9.128;2023-05-07T00:57:40;6.00;;;4.30;;
2480;SDS011;57396;48.742;9.128;2023-05-07T01:00:07;6.93;;;4.90;;
2480;SDS011;57396;48.742;9.128;2023-05-07T01:02:34;4.53;;;4.10;;
2480;SDS011;57396;48.742;9.128;2023-05-07T01:05:00;6.40;;;4.67;;
2480;SDS011;57396;48.742;9.128;2023-05-07T01:07:26;7.80;;;4.80;;
2480;SDS011;57396;48.742;9.128;2023-05-07T01:09:52;5.30;;;4.20;;
2480;SDS011;57396;48.742;9.128;2023-05-07T01:12:18;7.10;;;4.77;;
2480;SDS011;57396;48.742;9.128;2023-05-07T01:14:44;6.63;;;5.10;;
2480;SDS011;57396;48.742;9.128;2023-05-07T01:17:10;6.63;;;4.60;;
2480;SDS011;57396;48.742;9.128;2023-05-07T01:19:35;5.30;;;4.73;;
2480;SDS011;57396;48.742;9.128;2023-05-07T01:22:02;5.80;;;4.87;;
2480;SDS011;57396;48.742;9.128;2023-05-07T01:24:29;5.63;;;4.33;;
2480;SDS011;57396;48.742;9.128;2023-05-07T01:26:56;6.23;;;4.27;;
2480;SDS011;57396;48.742;9.128;2023-05-07T01:29:21;4.30;;;3.90;;
2480;SDS011;57396;48.742;9.128;2023-05-07T01:31:47;8.93;;;4.20;;
2480;SDS011;57396;48.742;9.128;2023-05-07T01:34:13;5.97;;;3.90;;
2480;SDS011;57396;48.742;9.128;2023-05-07T01:36:40;4.07;;;3.67;;
2480;SDS011;57396;48.742;9.128;2023-05-07T01:39:07;4.57;;;4.17;;
2480;SDS011;57396;48.742;9.128;2023-05-07T01:41:33;4.17;;;3.77;;
2480;SDS011;57396;48.742;9.128;2023-05-07T01:43:59;4.73;;;3.90;;
2480;SDS011;57396;48.742;9.128;2023-05-07T01:46:26;4.50;;;3.80;;
2480;SDS011;57396;48.742;9.128;2023-05-07T01:48:52;6.97;;;4.37;;
2480;SDS011;57396;48.742;9.128;2023-05-07T01:51:18;5.70;;;4.40;;
2480;SDS011;57396;48.742;9.128;2023-05-07T01:53:45;5.83;;;4.40;;
2480;SDS011;57396;48.742;9.128;2023-05-07T01:56:12;4.80;;;4.40;;
2480;SDS011;57396;48.742;9.128;2023-05-07T01:58:38;6.17;;;4.70;;
2480;SDS011;57396;48.742;9.128;2023-05-07T02:01:03;9.53;;;4.33;;
2480;SDS011;57396;48.742;9.128;2023-05-07T02:03:29;6.80;;;4.33;;
2480;SDS011;57396;48.742;9.128;2023-05-07T02:05:54;6.70;;;4.00;;
2480;SDS011;57396;48.742;9.128;2023-05-07T02:08:20;10.00;;;3.93;;
2480;SDS011;57396;48.742;9.128;2023-05-07T02:10:45;6.30;;;4.60;;
2480;SDS011;57396;48.742;9.128;2023-05-07T02:13:10;4.63;;;4.20;;
2480;SDS011;57396;48.742;9.128;2023-05-07T02:15:36;5.50;;;3.90;;
2480;SDS011;57396;48.742;9.128;2023-05-07T02:18:03;5.03;;;4.50;;
2480;SDS011;57396;48.742;9.128;2023-05-07T02:20:29;4.10;;;3.60;;
2480;SDS011;57396;48.742;9.128;2023-05-07T02:22:55;7.77;;;4.20;;
2480;SDS011;57396;48.742;9.128;2023-05-07T02:25:20;6.20;;;3.80;;
2480;SDS011;57396;48.742;9.128;2023-05-07T02:27:45;5.90;;;4.40;;
2480;SDS011;57396;48.742;9.128;2023-05-07T02:30:11;6.63;;;4.27;;
2480;SDS011;57396;48.742;9.128;2023-05-07T02:32:37;5.10;;;4.33;;
2480;SDS011;57396;48.742;9.128;2023-05-07T02:35:02;13.43;;;4.70;;
2480;SDS011;57396;48.742;9.128;2023-05-07T02:37:28;4.57;;;4.07;;
2480;SDS011;57396;48.742;9.128;2023-05-07T02:39:53;7.03;;;4.03;;
2480;SDS011;57396;48.742;9.128;2023-05-07T02:42:18;4.30;;;3.90;;
2480;SDS011;57396;48.742;9.128;2023-05-07T02:44:44;9.60;;;4.83;;
2480;SDS011;57396;48.742;9.128;2023-05-07T02:47:09;5.40;;;4.27;;
2480;SDS011;57396;48.742;9.128;2023-05-07T02:49:35;5.47;;;4.53;;
2480;SDS011;57396;48.742;9.128;2023-05-07T02:52:00;4.50;;;4.10;;
2480;SDS011;57396;48.742;9.128;2023-05-07T02:54:26;4.57;;;4.17;;
2480;SDS011;57396;48.742;9.128;2023-05-07T02:56:51;10.30;;;4.30;;
2480;SDS011;57396;48.742;9.128;2023-05-07T02:59:17;9.50;;;4.73;;
2480;SDS011;57396;48.742;9.128;2023-05-07T03:01:42;5.60;;;4.50;;
2480;SDS011;57396;48.742;9.128;2023-05-07T03:04:10;4.60;;;4.00;;
2480;SDS011;57396;48.742;9.128;2023-05-07T03:06:35;4.00;;;3.70;;
2480;SDS011;57396;48.742;9.128;2023-05-07T03:09:01;6.57;;;4.13;;
2480;SDS011;57396;48.742;9.128;2023-05-07T03:11:26;5.63;;;4.17;;
2480;SDS011;57396;48.742;9.128;2023-05-07T03:13:52;6.43;;;4.20;;
2480;SDS011;57396;48.742;9.128;2023-05-07T03:16:17;7.17;;;4.07;;
2480;SDS011;57396;48.742;9.128;2023-05-07T03:18:43;5.50;;;4.03;;
2480;SDS011;57396;48.742;9.128;2023-05-07T03:21:08;4.40;;;3.70;;
2480;SDS011;57396;48.742;9.128;2023-05-07T03:23:34;7.30;;;4.03;;
2480;SDS011;57396;48.742;9.128;2023-05-07T03:25:59;4.50;;;4.10;;
2480;SDS011;57396;48.742;9.128;2023-05-07T03:28:24;4.80;;;3.80;;
2480;SDS011;57396;48.742;9.128;2023-05-07T03:30:50;4.67;;;3.63;;
2480;SDS011;57396;48.742;9.128;2023-05-07T03:33:15;8.00;;;4.23;;
2480;SDS011;57396;48.742;9.128;2023-05-07T03:35:41;6.27;;;3.83;;
2480;SDS011;57396;48.742;9.128;2023-05-07T03:38:06;4.00;;;3.40;;
2480;SDS011;57396;48.742;9.128;2023-05-07T03:40:32;9.10;;;4.00;;
2480;SDS011;57396;48.742;9.128;2023-05-07T03:42:58;4.90;;;4.40;;
2480;SDS011;57396;48.742;9.128;2023-05-07T03:45:24;5.30;;;4.13;;
2480;SDS011;57396;48.742;9.128;2023-05-07T03:47:50;5.77;;;4.27;;
2480;SDS011;57396;48.742;9.128;2023-05-07T03:50:16;4.70;;;3.90;;
2480;SDS011;57396;48.742;9.128;2023-05-07T03:52:41;4.37;;;3.90;;
2480;SDS011;57396;48.742;9.128;2023-05-07T03:55:07;4.97;;;4.40;;
2480;SDS011;57396;48.742;9.128;2023-05-07T03:57:33;6.60;;;4.57;;
2480;SDS011;57396;48.742;9.128;2023-05-07T03:59:58;4.93;;;4.10;;
2480;SDS011;57396;48.742;9.128;2023-05-07T04:02:24;5.33;;;4.17;;
2480;SDS011;57396;48.742;9.128;2023-05-07T04:04:49;8.93;;;4.07;;
2480;SDS011;57396;48.742;9.128;2023-05-07T04:07:15;4.47;;;4.00;;
2480;SDS011;57396;48.742;9.128;2023-05-07T04:09:40;9.30;;;4.17;;
2480;SDS011;57396;48.742;9.128;2023-05-07T04:12:06;4.13;;;3.70;;
2480;SDS011;57396;48.742;9.128;2023-05-07T04:14:31;5.73;;;4.17;;
2480;SDS011;57396;48.742;9.128;2023-05-07T04:16:59;5.67;;;4.47;;
2480;SDS011;57396;48.742;9.128;2023-05-07T04:19:25;4.23;;;3.83;;
2480;SDS011;57396;48.742;9.128;2023-05-07T04:21:51;5.27;;;3.80;;
2480;SDS011;57396;48.742;9.128;2023-05-07T04:24:16;3.57;;;3.27;;
2480;SDS011;57396;48.742;9.128;2023-05-07T04:26:41;5.17;;;3.73;;
2480;SDS011;57396;48.742;9.128;2023-05-07T04:29:07;4.70;;;4.30;;
2480;SDS011;57396;48.742;9.128;2023-05-07T04:31:32;4.33;;;3.87;;
2480;SDS011;57396;48.742;9.128;2023-05-07T04:33:58;7.00;;;3.80;;
2480;SDS011;57396;48.742;9.128;2023-05-07T04:36:23;5.50;;;4.10;;
2480;SDS011;57396;48.742;9.128;2023-05-07T04:38:52;5.73;;;4.00;;
2480;SDS011;57396;48.742;9.128;2023-05-07T04:41:18;4.10;;;3.70;;
2480;SDS011;57396;48.742;9.128;2023-05-07T04:43:44;5.23;;;4.03;;
2480;SDS011;57396;48.742;9.128;2023-05-07T04:46:09;4.77;;;3.73;;
2480;SDS011;57396;48.742;9.128;2023-05-07T04:48:35;5.90;;;4.07;;
2480;SDS011;57396;48.742;9.128;2023-05-07T04:51:00;9.97;;;4.30;;
2480;SDS011;57396;48.742;9.128;2023-05-07T04:53:26;3.87;;;3.57;;
2480;SDS011;57396;48.742;9.128;2023-05-07T04:55:55;9.30;;;5.27;;
2480;SDS011;57396;48.742;9.128;2023-05-07T04:58:23;5.70;;;3.50;;
2480;SDS011;57396;48.742;9.128;2023-05-07T05:00:49;4.20;;;3.80;;
2480;SDS011;57396;48.742;9.128;2023-05-07T05:03:14;4.73;;;4.20;;
2480;SDS011;57396;48.742;9.128;2023-05-07T05:05:40;5.50;;;4.30;;
2480;SDS011;57396;48.742;9.128;2023-05-07T05:08:05;4.40;;;4.00;;
2480;SDS011;57396;48.742;9.128;2023-05-07T05:10:31;4.77;;;4.37;;
2480;SDS011;57396;48.742;9.128;2023-05-07T05:12:56;6.43;;;4.73;;
2480;SDS011;57396;48.742;9.128;2023-05-07T05:15:22;5.77;;;4.03;;
2480;SDS011;57396;48.742;9.128;2023-05-07T05:17:47;8.43;;;4.30;;
2480;SDS011;57396;48.742;9.128;2023-05-07T05:20:13;6.07;;;4.37;;
2480;SDS011;57396;48.742;9.128;2023-05-07T05:22:39;4.67;;;4.27;;
2480;SDS011;57396;48.742;9.128;2023-05-07T05:25:04;4.00;;;3.60;;
2480;SDS011;57396;48.742;9.128;2023-05-07T05:27:30;5.53;;;4.97;;
2480;SDS011;57396;48.742;9.128;2023-05-07T05:29:55;21.70;;;11.70;;
2480;SDS011;57396;48.742;9.128;2023-05-07T05:32:21;11.97;;;9.43;;
2480;SDS011;57396;48.742;9.128;2023-05-07T05:34:46;9.70;;;8.70;;
2480;SDS011;57396;48.742;9.128;2023-05-07T05:37:12;7.80;;;6.57;;
2480;SDS011;57396;48.742;9.128;2023-05-07T05:39:37;10.83;;;8.23;;
2480;SDS011;57396;48.742;9.128;2023-05-07T05:42:03;5.60;;;4.90;;
2480;SDS011;57396;48.742;9.128;2023-05-07T05:44:28;7.60;;;5.63;;
2480;SDS011;57396;48.742;9.128;2023-05-07T05:46:54;7.50;;;4.30;;
2480;SDS011;57396;48.742;9.128;2023-05-07T05:49:20;21.60;;;4.07;;
2480;SDS011;57396;48.742;9.128;2023-05-07T05:51:46;5.10;;;4.37;;
2480;SDS011;57396;48.742;9.128;2023-05-07T05:54:12;4.80;;;4.30;;
2480;SDS011;57396;48.742;9.128;2023-05-07T05:56:37;8.20;;;4.43;;
2480;SDS011;57396;48.742;9.128;2023-05-07T05:59:03;3.90;;;3.53;;
2480;SDS011;57396;48.742;9.128;2023-05-07T06:01:28;4.10;;;3.43;;
2480;SDS011;57396;48.742;9.128;2023-05-07T06:03:54;4.63;;;4.20;;
2480;SDS011;57396;48.742;9.128;2023-05-07T06:06:19;4.57;;;3.50;;
2480;SDS011;57396;48.742;9.128;2023-05-07T06:08:45;3.60;;;3.30;;
2480;SDS011;57396;48.742;9.128;2023-05-07T06:11:10;4.00;;;3.60;;
2480;SDS011;57396;48.742;9.128;2023-05-07T06:13:36;3.77;;;3.47;;
2480;SDS011;57396;48.742;9.128;2023-05-07T06:16:01;4.40;;;3.43;;
2480;SDS011;57396;48.742;9.128;2023-05-07T06:18:27;3.67;;;3.37;;
2480;SDS011;57396;48.742;9.128;2023-05-07T06:20:53;3.30;;;3.10;;
2480;SDS011;57396;48.742;9.128;2023-05-07T06:23:18;4.13;;;3.73;;
2480;SDS011;57396;48.742;9.128;2023-05-07T06:25:49;4.17;;;3.27;;
2480;SDS011;57396;48.742;9.128;2023-05-07T06:28:15;5.70;;;3.60;;
2480;SDS011;57396;48.742;9.128;2023-05-07T06:30:41;3.60;;;3.30;;
2480;SDS011;57396;48.742;9.128;2023-05-07T06:33:06;5.30;;;4.40;;
2480;SDS011;57396;48.742;9.128;2023-05-07T06:35:32;5.50;;;3.10;;
2480;SDS011;57396;48.742;9.128;2023-05-07T06:37:57;5.30;;;2.80;;
2480;SDS011;57396;48.742;9.128;2023-05-07T06:40:23;3.20;;;2.90;;
2480;SDS011;57396;48.742;9.128;2023-05-07T06:42:48;4.50;;;3.73;;
2480;SDS011;57396;48.742;9.128;2023-05-07T06:45:14;6.03;;;3.67;;
2480;SDS011;57396;48.742;9.128;2023-05-07T06:47:39;4.33;;;3.93;;
2480;SDS011;57396;48.742;9.128;2023-05-07T06:50:05;4.30;;;3.67;;
2480;SDS011;57396;48.742;9.128;2023-05-07T06:52:31;4.67;;;3.90;;
2480;SDS011;57396;48.742;9.128;2023-05-07T06:54:56;4.23;;;3.93;;
2480;SDS011;57396;48.742;9.128;2023-05-07T06:57:21;4.00;;;3.60;;
2480;SDS011;57396;48.742;9.128;2023-05-07T06:59:47;6.33;;;3.77;;
2480;SDS011;57396;48.742;9.128;2023-05-07T07:02:12;4.70;;;3.93;;
2480;SDS011;57396;48.742;9.128;2023-05-07T07:04:38;4.37;;;3.70;;
2480;SDS011;57396;48.742;9.128;2023-05-07T07:07:03;3.90;;;3.60;;
2480;SDS011;57396;48.742;9.128;2023-05-07T07:09:29;5.27;;;3.40;;
2480;SDS011;57396;48.742;9.128;2023-05-07T07:11:54;4.00;;;3.60;;
2480;SDS011;57396;48.742;9.128;2023-05-07T07:14:20;4.90;;;3.70;;
2480;SDS011;57396;48.742;9.128;2023-05-07T07:16:45;6.37;;;3.93;;
2480;SDS011;57396;48.742;9.128;2023-05-07T07:19:11;8.20;;;4.60;;
2480;SDS011;57396;48.742;9.128;2023-05-07T07:21:37;4.63;;;4.13;;
2480;SDS011;57396;48.742;9.128;2023-05-07T07:24:02;4.27;;;3.73;;
2480;SDS011;57396;48.742;9.128;2023-05-07T07:26:28;4.80;;;4.30;;
2480;SDS011;57396;48.742;9.128;2023-05-07T07:28:53;5.60;;;4.03;;
2480;SDS011;57396;48.742;9.128;2023-05-07T07:31:19;4.60;;;3.73;;
2480;SDS011;57396;48.742;9.128;2023-05-07T07:33:44;3.50;;;3.20;;
2480;SDS011;57396;48.742;9.128;2023-05-07T07:36:10;3.70;;;3.30;;
2480;SDS011;57396;48.742;9.128;2023-05-07T07:38:35;5.00;;;3.23;;
2480;SDS011;57396;48.742;9.128;2023-05-07T07:41:01;4.03;;;3.63;;
2480;SDS011;57396;48.742;9.128;2023-05-07T07:43:26;4.10;;;3.70;;
2480;SDS011;57396;48.742;9.128;2023-05-07T07:45:52;3.87;;;3.47;;
2480;SDS011;57396;48.742;9.128;2023-05-07T07:48:18;4.00;;;3.70;;
2480;SDS011;57396;48.742;9.128;2023-05-07T07:50:43;3.93;;;3.63;;
2480;SDS011;57396;48.742;9.128;2023-05-07T07:53:09;4.03;;;3.70;;
2480;SDS011;57396;48.742;9.128;2023-05-07T07:55:38;4.10;;;3.60;;
2480;SDS011;57396;48.742;9.128;2023-05-07T07:58:04;4.70;;;3.40;;
2480;SDS011;57396;48.742;9.128;2023-05-07T08:00:30;3.53;;;3.23;;
2480;SDS011;57396;48.742;9.128;2023-05-07T08:02:55;3.67;;;3.37;;
2480;SDS011;57396;48.742;9.128;2023-05-07T08:05:21;4.37;;;3.23;;
2480;SDS011;57396;48.742;9.128;2023-05-07T08:07:47;4.57;;;3.87;;
2480;SDS011;57396;48.742;9.128;2023-05-07T08:10:17;7.20;;;4.50;;
2480;SDS011;57396;48.742;9.128;2023-05-07T08:12:47;4.33;;;3.13;;
2480;SDS011;57396;48.742;9.128;2023-05-07T08:15:13;5.40;;;3.00;;
2480;SDS011;57396;48.742;9.128;2023-05-07T08:17:38;8.97;;;3.20;;
2480;SDS011;57396;48.742;9.128;2023-05-07T08:20:04;7.90;;;3.00;;
2480;SDS011;57396;48.742;9.128;2023-05-07T08:22:30;4.73;;;3.07;;
2480;SDS011;57396;48.742;9.128;2023-05-07T08:24:55;3.83;;;2.80;;
2480;SDS011;57396;48.742;9.128;2023-05-07T08:27:21;2.93;;;2.73;;
2480;SDS011;57396;48.742;9.128;2023-05-07T08:29:46;3.40;;;2.70;;
2480;SDS011;57396;48.742;9.128;2023-05-07T08:32:13;5.77;;;3.00;;
2480;SDS011;57396;48.742;9.128;2023-05-07T08:34:38;3.30;;;3.00;;
2480;SDS011;57396;48.742;9.128;2023-05-07T08:37:04;4.40;;;3.90;;
2480;SDS011;57396;48.742;9.128;2023-05-07T08:39:29;3.53;;;2.90;;
2480;SDS011;57396;48.742;9.128;2023-05-07T08:41:55;6.00;;;2.90;;
2480;SDS011;57396;48.742;9.128;2023-05-07T08:44:23;3.03;;;2.70;;
2480;SDS011;57396;48.742;9.128;2023-05-07T08:46:52;2.70;;;2.50;;
2480;SDS011;57396;48.742;9.128;2023-05-07T08:49:19;3.50;;;3.20;;
2480;SDS011;57396;48.742;9.128;2023-05-07T08:51:45;4.10;;;2.97;;
2480;SDS011;57396;48.742;9.128;2023-05-07T08:54:11;2.80;;;2.50;;
2480;SDS011;57396;48.742;9.128;2023-05-07T08:56:37;6.07;;;3.13;;
2480;SDS011;57396;48.742;9.128;2023-05-07T08:59:05;3.00;;;2.80;;
2480;SDS011;57396;48.742;9.128;2023-05-07T09:01:30;23.57;;;2.67;;
2480;SDS011;57396;48.742;9.128;2023-05-07T09:03:55;9.90;;;2.97;;
2480;SDS011;57396;48.742;9.128;2023-05-07T09:06:22;2.70;;;2.50;;
2480;SDS011;57396;48.742;9.128;2023-05-07T09:08:51;2.80;;;2.60;;
2480;SDS011;57396;48.742;9.128;2023-05-07T09:11:19;3.73;;;2.70;;
2480;SDS011;57396;48.742;9.128;2023-05-07T09:13:46;2.73;;;2.53;;
2480;SDS011;57396;48.742;9.128;2023-05-07T09:16:11;7.93;;;3.90;;
2480;SDS011;57396;48.742;9.128;2023-05-07T09:18:44;3.43;;;2.53;;
2480;SDS011;57396;48.742;9.128;2023-05-07T09:21:14;3.90;;;2.90;;
2480;SDS011;57396;48.742;9.128;2023-05-07T09:23:41;5.97;;;3.90;;
2480;SDS011;57396;48.742;9.128;2023-05-07T09:26:06;7.90;;;3.30;;
2480;SDS011;57396;48.742;9.128;2023-05-07T09:28:37;3.80;;;2.53;;
2480;SDS011;57396;48.742;9.128;2023-05-07T09:31:03;2.77;;;2.50;;
2480;SDS011;57396;48.742;9.128;2023-05-07T09:33:29;3.20;;;2.57;;
2480;SDS011;57396;48.742;9.128;2023-05-07T09:35:55;3.63;;;2.87;;
2480;SDS011;57396;48.742;9.128;2023-05-07T09:38:21;4.60;;;2.50;;
2480;SDS011;57396;48.742;9.128;2023-05-07T09:40:46;2.23;;;2.13;;
2480;SDS011;57396;48.742;9.128;2023-05-07T09:43:12;2.53;;;2.17;;
2480;SDS011;57396;48.742;9.128;2023-05-07T09:45:38;6.10;;;2.50;;
2480;SDS011;57396;48.742;9.128;2023-05-07T09:48:05;4.90;;;2.43;;
2480;SDS011;57396;48.742;9.128;2023-05-07T09:50:40;5.80;;;2.23;;
2480;SDS011;57396;48.742;9.128;2023-05-07T09:53:13;2.70;;;2.50;;
2480;SDS011;57396;48.742;9.128;2023-05-07T09:55:39;2.80;;;2.60;;
2480;SDS011;57396;48.742;9.128;2023-05-07T09:58:05;4.43;;;2.20;;
2480;SDS011;57396;48.742;9.128;2023-05-07T10:00:31;3.33;;;2.50;;
2480;SDS011;57396;48.742;9.128;2023-05-07T10:02:57;5.67;;;2.50;;
2480;SDS011;57396;48.742;9.128;2023-05-07T10:05:23;5.43;;;2.30;;
2480;SDS011;57396;48.742;9.128;2023-05-07T10:07:49;2.43;;;2.23;;
2480;SDS011;57396;48.742;9.128;2023-05-07T10:10:15;2.87;;;2.67;;
2480;SDS011;57396;48.742;9.128;2023-05-07T10:12:42;2.73;;;2.40;;
2480;SDS011;57396;48.742;9.128;2023-05-07T10:15:08;10.10;;;2.80;;
2480;SDS011;57396;48.742;9.128;2023-05-07T10:17:35;2.97;;;2.43;;
2480;SDS011;57396;48.742;9.128;2023-05-07T10:20:02;4.27;;;2.30;;
2480;SDS011;57396;48.742;9.128;2023-05-07T10:22:30;2.40;;;2.20;;
2480;SDS011;57396;48.742;9.128;2023-05-07T10:24:59;2.57;;;2.10;;
2480;SDS011;57396;48.742;9.128;2023-05-07T10:27:27;2.93;;;2.57;;
2480;SDS011;57396;48.742;9.128;2023-05-07T10:30:00;2.70;;;2.50;;
2480;SDS011;57396;48.742;9.128;2023-05-07T10:32:45;2.53;;;2.33;;
2480;SDS011;57396;48.742;9.128;2023-05-07T10:35:31;3.00;;;1.97;;
2480;SDS011;57396;48.742;9.128;2023-05-07T10:38:01;3.20;;;1.80;;
2480;SDS011;57396;48.742;9.128;2023-05-07T10:40:27;2.20;;;2.00;;
2480;SDS011;57396;48.742;9.128;2023-05-07T10:42:54;2.93;;;2.10;;
2480;SDS011;57396;48.742;9.128;2023-05-07T10:45:21;7.97;;;1.97;;
2480;SDS011;57396;48.742;9.128;2023-05-07T10:50:41;4.57;;;2.40;;
2480;SDS011;57396;48.742;9.128;2023-05-07T10:55:49;2.20;;;2.00;;
2480;SDS011;57396;48.742;9.128;2023-05-07T11:00:47;3.30;;;2.30;;
2480;SDS011;57396;48.742;9.128;2023-05-07T11:03:13;3.20;;;2.10;;
2480;SDS011;57396;48.742;9.128;2023-05-07T11:05:40;3.07;;;2.13;;
2480;SDS011;57396;48.742;9.128;2023-05-07T11:08:06;3.13;;;2.30;;
2480;SDS011;57396;48.742;9.128;2023-05-07T11:10:51;2.10;;;1.83;;
2480;SDS011;57396;48.742;9.128;2023-05-07T11:13:16;2.43;;;1.90;;
2480;SDS011;57396;48.742;9.128;2023-05-07T11:15:43;2.60;;;1.93;;
2480;SDS011;57396;48.742;9.128;2023-05-07T11:18:13;2.87;;;1.73;;
2480;SDS011;57396;48.742;9.128;2023-05-07T11:20:44;3.97;;;1.90;;
2480;SDS011;57396;48.742;9.128;2023-05-07T11:23:54;2.00;;;1.80;;
2480;SDS011;57396;48.742;9.128;2023-05-07T11:26:18;3.30;;;2.10;;
2480;SDS011;57396;48.742;9.128;2023-05-07T11:28:43;3.37;;;2.20;;
2480;SDS011;57396;48.742;9.128;2023-05-07T11:31:09;3.47;;;2.30;;
2480;SDS011;57396;48.742;9.128;2023-05-07T11:33:36;3.07;;;2.20;;
2480;SDS011;57396;48.742;9.128;2023-05-07T11:36:02;6.23;;;2.50;;
2480;SDS011;57396;48.742;9.128;2023-05-07T11:38:38;3.53;;;2.00;;
2480;SDS011;57396;48.742;9.128;2023-05-07T11:41:03;4.17;;;2.60;;
2480;SDS011;57396;48.742;9.128;2023-05-07T11:43:30;8.17;;;2.30;;
2480;SDS011;57396;48.742;9.128;2023-05-07T11:46:08;5.60;;;2.47;;
2480;SDS011;57396;48.742;9.128;2023-05-07T11:48:34;2.77;;;1.93;;
2480;SDS011;57396;48.742;9.128;2023-05-07T11:51:00;3.00;;;2.33;;
2480;SDS011;57396;48.742;9.128;2023-05-07T11:53:28;6.20;;;5.20;;
2480;SDS011;57396;48.742;9.128;2023-05-07T11:56:00;8.30;;;5.83;;
2480;SDS011;57396;48.742;9.128;2023-05-07T11:58:26;4.53;;;4.10;;
2480;SDS011;57396;48.742;9.128;2023-05-07T12:00:51;3.47;;;2.87;;
2480;SDS011;57396;48.742;9.128;2023-05-07T12:03:18;9.13;;;3.20;;
2480;SDS011;57396;48.742;9.128;2023-05-07T12:05:44;5.30;;;3.67;;
2480;SDS011;57396;48.742;9.128;2023-05-07T12:08:13;5.07;;;3.73;;
2480;SDS011;57396;48.742;9.128;2023-05-07T12:10:47;3.07;;;2.77;;
2480;SDS011;57396;48.742;9.128;2023-05-07T12:13:21;8.90;;;2.80;;
2480;SDS011;57396;48.742;9.128;2023-05-07T12:15:50;5.07;;;3.00;;
2480;SDS011;57396;48.742;9.128;2023-05-07T12:18:16;6.73;;;3.30;;
2480;SDS011;57396;48.742;9.128;2023-05-07T12:20:42;5.30;;;3.10;;
2480;SDS011;57396;48.742;9.128;2023-05-07T12:23:08;5.83;;;2.67;;
2480;SDS011;57396;48.742;9.128;2023-05-07T12:25:34;3.90;;;3.50;;
2480;SDS011;57396;48.742;9.128;2023-05-07T12:28:01;7.63;;;2.80;;
2480;SDS011;57396;48.742;9.128;2023-05-07T12:30:27;4.20;;;2.77;;
2480;SDS011;57396;48.742;9.128;2023-05-07T12:32:55;13.57;;;3.50;;
2480;SDS011;57396;48.742;9.128;2023-05-07T12:35:31;8.43;;;3.00;;
2480;SDS011;57396;48.742;9.128;2023-05-07T12:37:57;12.27;;;4.63;;
2480;SDS011;57396;48.742;9.128;2023-05-07T12:40:24;17.30;;;3.57;;
2480;SDS011;57396;48.742;9.128;2023-05-07T12:43:00;4.40;;;2.43;;
2480;SDS011;57396;48.742;9.128;2023-05-07T12:45:25;10.03;;;2.67;;
2480;SDS011;57396;48.742;9.128;2023-05-07T12:47:51;7.40;;;2.83;;
2480;SDS011;57396;48.742;9.128;2023-05-07T12:50:16;8.40;;;2.63;;
2480;SDS011;57396;48.742;9.128;2023-05-07T12:52:45;6.57;;;2.10;;
2480;SDS011;57396;48.742;9.128;2023-05-07T12:55:13;9.53;;;2.10;;
2480;SDS011;57396;48.742;9.128;2023-05-07T12:57:41;4.33;;;2.10;;
2480;SDS011;57396;48.742;9.128;2023-05-07T13:00:13;2.40;;;1.60;;
2480;SDS011;57396;48.742;9.128;2023-05-07T13:02:40;6.80;;;1.93;;
2480;SDS011;57396;48.742;9.128;2023-05-07T13:05:06;5.40;;;1.70;;
2480;SDS011;57396;48.742;9.128;2023-05-07T13:07:32;5.00;;;1.70;;
2480;SDS011;57396;48.742;9.128;2023-05-07T13:09:58;4.33;;;2.00;;
2480;SDS011;57396;48.742;9.128;2023-05-07T13:12:23;7.33;;;1.83;;
2480;SDS011;57396;48.742;9.128;2023-05-07T13:14:49;4.60;;;1.57;;
2480;SDS011;57396;48.742;9.128;2023-05-07T13:17:14;3.80;;;1.77;;
2480;SDS011;57396;48.742;9.128;2023-05-07T13:19:40;2.13;;;1.33;;
2480;SDS011;57396;48.742;9.128;2023-05-07T13:22:05;3.10;;;2.10;;
2480;SDS011;57396;48.742;9.128;2023-05-07T13:24:31;6.13;;;2.00;;
2480;SDS011;57396;48.742;9.128;2023-05-07T13:26:56;5.63;;;2.50;;
2480;SDS011;57396;48.742;9.128;2023-05-07T13:29:22;16.30;;;2.20;;
2480;SDS011;57396;48.742;9.128;2023-05-07T13:31:53;2.93;;;2.10;;
2480;SDS011;57396;48.742;9.128;2023-05-07T13:34:19;4.80;;;1.90;;
2480;SDS011;57396;48.742;9.128;2023-05-07T13:36:45;17.30;;;2.20;;
2480;SDS011;57396;48.742;9.128;2023-05-07T13:39:10;3.70;;;1.80;;
2480;SDS011;57396;48.742;9.128;2023-05-07T13:41:36;3.07;;;1.77;;
2480;SDS011;57396;48.742;9.128;2023-05-07T13:44:01;4.50;;;1.90;;
2480;SDS011;57396;48.742;9.128;2023-05-07T13:46:27;5.67;;;1.60;;
2480;SDS011;57396;48.742;9.128;2023-05-07T13:48:52;3.37;;;1.80;;
2480;SDS011;57396;48.742;9.128;2023-05-07T13:51:18;4.00;;;1.50;;
2480;SDS011;57396;48.742;9.128;2023-05-07T13:53:43;3.73;;;1.60;;
2480;SDS011;57396;48.742;9.128;2023-05-07T13:56:09;4.50;;;1.83;;
2480;SDS011;57396;48.742;9.128;2023-05-07T13:58:34;2.10;;;1.90;;
2480;SDS011;57396;48.742;9.128;2023-05-07T14:01:01;2.93;;;2.00;;
2480;SDS011;57396;48.742;9.128;2023-05-07T14:03:27;5.83;;;2.37;;
2480;SDS011;57396;48.742;9.128;2023-05-07T14:05:52;5.13;;;2.00;;
2480;SDS011;57396;48.742;9.128;2023-05-07T14:08:17;3.63;;;2.20;;
2480;SDS011;57396;48.742;9.128;2023-05-07T14:10:45;6.63;;;2.33;;
2480;SDS011;57396;48.742;9.128;2023-05-07T14:13:11;5.27;;;2.60;;
2480;SDS011;57396;48.742;9.128;2023-05-07T14:15:36;5.53;;;2.30;;
2480;SDS011;57396;48.742;9.128;2023-05-07T14:18:02;6.00;;;2.57;;
2480;SDS011;57396;48.742;9.128;2023-05-07T14:20:28;11.10;;;2.60;;
2480;SDS011;57396;48.742;9.128;2023-05-07T14:22:55;3.77;;;2.50;;
2480;SDS011;57396;48.742;9.128;2023-05-07T14:25:20;4.20;;;2.17;;
2480;SDS011;57396;48.742;9.128;2023-05-07T14:27:46;3.57;;;2.10;;
2480;SDS011;57396;48.742;9.128;2023-05-07T14:30:12;3.00;;;2.27;;
2480;SDS011;57396;48.742;9.128;2023-05-07T14:32:37;5.13;;;2.07;;
2480;SDS011;57396;48.742;9.128;2023-05-07T14:35:03;9.07;;;2.67;;
2480;SDS011;57396;48.742;9.128;2023-05-07T14:37:29;4.27;;;2.30;;
2480;SDS011;57396;48.742;9.128;2023-05-07T14:39:54;4.90;;;1.90;;
2480;SDS011;57396;48.742;9.128;2023-05-07T14:42:20;3.63;;;1.80;;
2480;SDS011;57396;48.742;9.128;2023-05-07T14:44:45;2.70;;;2.07;;
2480;SDS011;57396;48.742;9.128;2023-05-07T14:47:12;5.40;;;2.03;;
2480;SDS011;57396;48.742;9.128;2023-05-07T14:49:38;4.23;;;1.93;;
2480;SDS011;57396;48.742;9.128;2023-05-07T14:52:03;4.80;;;1.87;;
2480;SDS011;57396;48.742;9.128;2023-05-07T14:54:33;2.50;;;1.80;;
2480;SDS011;57396;48.742;9.128;2023-05-07T14:56:58;3.60;;;2.00;;
2480;SDS011;57396;48.742;9.128;2023-05-07T14:59:24;7.93;;;2.03;;
2480;SDS011;57396;48.742;9.128;2023-05-07T15:01:50;3.10;;;2.00;;
2480;SDS011;57396;48.742;9.128;2023-05-07T15:04:15;3.40;;;2.13;;